createdAt,value
2023-03-11T00:00:52.691Z,100.00
2023-03-11T00:03:20.369Z,100.00
2023-03-11T00:05:47.287Z,100.00
2023-03-11T00:08:16.954Z,100.00
2023-03-11T00:10:45.737Z,100.00
2023-03-11T00:13:15.259Z,100.00
2023-03-11T00:15:43.575Z,100.00
2023-03-11T00:18:10.123Z,100.00
2023-03-11T00:20:39.678Z,100.00
2023-03-11T00:23:10.814Z,100.00
2023-03-11T00:25:38.497Z,100.00
2023-03-11T00:28:07.319Z,100.00
2023-03-11T00:30:34.299Z,100.00
2023-03-11T00:33:00.881Z,100.00
2023-03-11T00:35:30.184Z,100.00
2023-03-11T00:38:02.761Z,100.00
2023-03-11T00:40:31.773Z,100.00
2023-03-11T00:42:58.799Z,100.00
2023-03-11T00:45:26.579Z,100.00
2023-03-11T00:47:54.485Z,100.00
2023-03-11T00:50:24.133Z,100.00
2023-03-11T00:52:51.585Z,100.00
2023-03-11T00:55:21.790Z,100.00
2023-03-11T00:57:48.252Z,100.00
2023-03-11T01:00:16.874Z,100.00
2023-03-11T01:02:43.588Z,100.00
2023-03-11T01:05:10.644Z,100.00
2023-03-11T01:07:37.391Z,100.00
2023-03-11T01:10:05.004Z,100.00
2023-03-11T01:12:31.453Z,100.00
2023-03-11T01:14:57.914Z,100.00
2023-03-11T01:17:24.478Z,100.00
2023-03-11T01:19:51.008Z,100.00
2023-03-11T01:22:17.783Z,100.00
2023-03-11T01:24:44.379Z,100.00
2023-03-11T01:27:10.998Z,100.00
2023-03-11T01:29:37.482Z,100.00
2023-03-11T01:32:04.535Z,100.00
2023-03-11T01:34:31.158Z,100.00
2023-03-11T01:36:57.672Z,100.00
2023-03-11T01:39:24.171Z,100.00
2023-03-11T01:41:52.945Z,100.00
2023-03-11T01:44:19.417Z,100.00
2023-03-11T01:46:52.000Z,100.00
2023-03-11T01:49:20.799Z,100.00
2023-03-11T01:52:08.146Z,100.00
2023-03-11T01:54:39.571Z,100.00
2023-03-11T01:57:09.536Z,100.00
2023-03-11T01:59:44.053Z,100.00
2023-03-11T02:02:32.091Z,100.00
2023-03-11T02:05:01.200Z,100.00
2023-03-11T02:07:29.205Z,100.00
2023-03-11T02:09:55.607Z,100.00
2023-03-11T02:12:22.544Z,100.00
2023-03-11T02:14:54.534Z,100.00
2023-03-11T02:17:22.341Z,100.00
2023-03-11T02:19:58.144Z,100.00
2023-03-11T02:22:24.854Z,100.00
2023-03-11T02:25:09.336Z,100.00
2023-03-11T02:27:41.153Z,100.00
2023-03-11T02:30:11.014Z,100.00
2023-03-11T02:32:38.091Z,100.00
2023-03-11T02:35:06.377Z,100.00
2023-03-11T02:37:32.938Z,100.00
2023-03-11T02:40:24.349Z,100.00
2023-03-11T02:42:54.059Z,100.00
2023-03-11T02:45:23.874Z,100.00
2023-03-11T02:47:52.737Z,100.00
2023-03-11T02:50:19.374Z,100.00
2023-03-11T02:52:49.139Z,100.00
2023-03-11T02:55:17.988Z,100.00
2023-03-11T02:57:45.214Z,100.00
2023-03-11T03:00:15.702Z,100.00
2023-03-11T03:02:43.931Z,100.00
2023-03-11T03:05:11.322Z,100.00
2023-03-11T03:07:38.672Z,100.00
2023-03-11T03:10:06.470Z,100.00
2023-03-11T03:12:32.892Z,100.00
2023-03-11T03:14:59.385Z,100.00
2023-03-11T03:17:25.990Z,100.00
2023-03-11T03:19:52.532Z,100.00
2023-03-11T03:22:18.994Z,100.00
2023-03-11T03:24:45.492Z,100.00
2023-03-11T03:27:12.288Z,100.00
2023-03-11T03:29:38.762Z,100.00
2023-03-11T03:32:05.743Z,100.00
2023-03-11T03:34:32.306Z,100.00
2023-03-11T03:36:58.778Z,100.00
2023-03-11T03:39:25.193Z,100.00
2023-03-11T03:41:51.666Z,100.00
2023-03-11T03:44:18.284Z,100.00
2023-03-11T03:46:44.751Z,100.00
2023-03-11T03:49:11.179Z,100.00
2023-03-11T03:51:37.571Z,100.00
2023-03-11T03:54:04.120Z,100.00
2023-03-11T03:56:30.558Z,100.00
2023-03-11T03:58:56.997Z,100.00
2023-03-11T04:01:23.410Z,100.00
2023-03-11T04:03:49.967Z,100.00
2023-03-11T04:06:24.218Z,100.00
2023-03-11T04:08:52.036Z,100.00
2023-03-11T04:11:18.763Z,100.00
2023-03-11T04:13:45.429Z,100.00
2023-03-11T04:16:19.687Z,100.00
2023-03-11T04:18:46.706Z,100.00
2023-03-11T04:21:13.414Z,100.00
2023-03-11T04:23:39.936Z,100.00
2023-03-11T04:26:06.414Z,100.00
2023-03-11T04:28:33.306Z,100.00
2023-03-11T04:30:59.819Z,100.00
2023-03-11T04:33:26.380Z,100.00
2023-03-11T04:35:52.915Z,100.00
2023-03-11T04:38:19.397Z,100.00
2023-03-11T04:40:45.897Z,100.00
2023-03-11T04:43:12.454Z,100.00
2023-03-11T04:45:40.083Z,100.00
2023-03-11T04:48:06.765Z,100.00
2023-03-11T04:50:33.285Z,100.00
2023-03-11T04:52:59.769Z,100.00
2023-03-11T04:55:26.461Z,100.00
2023-03-11T04:57:52.921Z,100.00
2023-03-11T05:00:24.605Z,100.00
2023-03-11T05:02:51.447Z,100.00
2023-03-11T05:05:21.385Z,100.00
2023-03-11T05:07:48.569Z,100.00
2023-03-11T05:10:22.139Z,100.00
2023-03-11T05:12:52.037Z,100.00
2023-03-11T05:15:19.048Z,100.00
2023-03-11T05:17:45.884Z,100.00
2023-03-11T05:20:14.374Z,100.00
2023-03-11T05:22:41.953Z,100.00
2023-03-11T05:25:08.941Z,100.00
2023-03-11T05:27:35.605Z,100.00
2023-03-11T05:30:02.063Z,100.00
2023-03-11T05:32:28.525Z,100.00
2023-03-11T05:34:54.993Z,100.00
2023-03-11T05:37:21.445Z,100.00
2023-03-11T05:39:47.914Z,100.00
2023-03-11T05:42:14.461Z,100.00
2023-03-11T05:44:41.900Z,100.00
2023-03-11T05:47:08.344Z,100.00
2023-03-11T05:49:34.969Z,100.00
2023-03-11T05:52:01.436Z,100.00
2023-03-11T05:54:27.932Z,100.00
2023-03-11T05:56:55.488Z,100.00
2023-03-11T05:59:21.922Z,100.00
2023-03-11T06:01:48.308Z,100.00
2023-03-11T06:04:14.929Z,100.00
2023-03-11T06:06:42.498Z,100.00
2023-03-11T06:09:15.699Z,100.00
2023-03-11T06:11:42.801Z,100.00
2023-03-11T06:14:14.383Z,100.00
2023-03-11T06:16:41.631Z,100.00
2023-03-11T06:19:08.283Z,100.00
2023-03-11T06:21:34.901Z,100.00
2023-03-11T06:24:01.398Z,100.00
2023-03-11T06:26:28.326Z,100.00
2023-03-11T06:28:54.906Z,100.00
2023-03-11T06:31:28.944Z,100.00
2023-03-11T06:33:56.243Z,100.00
2023-03-11T06:36:23.616Z,100.00
2023-03-11T06:38:52.575Z,100.00
2023-03-11T06:41:19.257Z,100.00
2023-03-11T06:43:45.651Z,100.00
2023-03-11T06:46:18.037Z,100.00
2023-03-11T06:48:46.257Z,100.00
2023-03-11T06:51:13.208Z,100.00
2023-03-11T06:53:40.117Z,100.00
2023-03-11T06:56:09.300Z,100.00
2023-03-11T06:58:37.161Z,100.00
2023-03-11T07:01:06.966Z,100.00
2023-03-11T07:03:33.857Z,100.00
2023-03-11T07:06:00.374Z,100.00
2023-03-11T07:08:26.968Z,100.00
2023-03-11T07:11:20.376Z,100.00
2023-03-11T07:13:47.640Z,100.00
2023-03-11T07:16:17.156Z,100.00
2023-03-11T07:18:46.260Z,100.00
2023-03-11T07:21:15.223Z,100.00
2023-03-11T07:23:42.361Z,100.00
2023-03-11T07:26:14.296Z,100.00
2023-03-11T07:28:41.736Z,100.00
2023-03-11T07:31:14.287Z,100.00
2023-03-11T07:33:40.748Z,100.00
2023-03-11T07:36:10.023Z,100.00
2023-03-11T07:38:36.992Z,100.00
2023-03-11T07:41:04.273Z,100.00
2023-03-11T07:43:30.948Z,100.00
2023-03-11T07:46:06.753Z,100.00
2023-03-11T07:48:33.905Z,100.00
2023-03-11T07:51:05.642Z,100.00
2023-03-11T07:53:32.706Z,100.00
2023-03-11T07:55:59.814Z,100.00
2023-03-11T07:58:27.167Z,100.00
2023-03-11T08:00:55.329Z,100.00
2023-03-11T08:03:21.834Z,100.00
2023-03-11T08:05:48.300Z,99.71
2023-03-11T08:08:14.750Z,99.80
2023-03-11T08:10:41.221Z,99.15
2023-03-11T08:13:08.825Z,98.53
2023-03-11T08:15:37.047Z,98.00
2023-03-11T08:18:04.063Z,97.86
2023-03-11T08:20:30.721Z,96.46
2023-03-11T08:22:58.481Z,95.95
2023-03-11T08:25:25.304Z,96.06
2023-03-11T08:27:51.733Z,94.93
2023-03-11T08:30:18.554Z,94.98
2023-03-11T08:32:45.118Z,94.80
2023-03-11T08:35:11.625Z,94.11
2023-03-11T08:37:38.226Z,94.16
2023-03-11T08:40:05.589Z,94.10
2023-03-11T08:42:32.144Z,92.67
2023-03-11T08:44:58.986Z,91.96
2023-03-11T08:47:25.565Z,90.43
2023-03-11T08:49:52.077Z,89.66
2023-03-11T08:52:18.552Z,88.84
2023-03-11T08:54:45.021Z,87.68
2023-03-11T08:57:13.221Z,86.49
2023-03-11T08:59:39.745Z,87.05
2023-03-11T09:02:06.230Z,85.77
2023-03-11T09:04:32.693Z,84.85
2023-03-11T09:06:59.227Z,84.07
2023-03-11T09:09:25.625Z,84.53
2023-03-11T09:11:52.064Z,85.44
2023-03-11T09:14:18.675Z,84.35
2023-03-11T09:16:45.190Z,82.93
2023-03-11T09:19:11.643Z,82.34
2023-03-11T09:21:38.238Z,82.58
2023-03-11T09:24:05.626Z,83.48
2023-03-11T09:26:32.678Z,82.42
2023-03-11T09:28:59.219Z,82.69
2023-03-11T09:31:25.824Z,82.62
2023-03-11T09:33:52.831Z,80.94
2023-03-11T09:36:21.311Z,81.48
2023-03-11T09:38:48.876Z,80.37
2023-03-11T09:41:18.107Z,81.18
2023-03-11T09:43:56.693Z,80.53
2023-03-11T09:46:29.317Z,80.38
2023-03-11T09:49:09.533Z,79.24
2023-03-11T09:51:41.961Z,77.74
2023-03-11T09:54:13.138Z,77.99
2023-03-11T09:56:44.428Z,77.37
2023-03-11T09:59:30.274Z,76.47
2023-03-11T10:01:56.911Z,76.52
2023-03-11T10:04:42.721Z,76.47
2023-03-11T10:07:23.596Z,75.90
2023-03-11T10:09:56.697Z,75.57
2023-03-11T10:12:44.487Z,74.99
2023-03-11T10:15:11.966Z,73.79
2023-03-11T10:18:12.420Z,75.32
2023-03-11T10:21:03.386Z,73.61
2023-03-11T10:23:55.667Z,74.57
2023-03-11T10:26:37.118Z,73.72
2023-03-11T10:29:41.387Z,74.95
2023-03-11T10:32:24.701Z,73.81
2023-03-11T10:35:25.252Z,73.60
2023-03-11T10:37:56.895Z,74.19
2023-03-11T10:40:31.332Z,72.41
2023-03-11T10:43:03.193Z,73.29
2023-03-11T10:45:36.669Z,73.08
2023-03-11T10:48:07.864Z,72.91
2023-03-11T10:50:36.513Z,71.39
2023-03-11T10:53:19.044Z,72.76
2023-03-11T10:55:54.675Z,71.43
2023-03-11T10:58:26.977Z,70.25
2023-03-11T11:01:07.982Z,70.64
2023-03-11T11:03:36.375Z,70.71
2023-03-11T11:06:06.484Z,70.96
2023-03-11T11:08:33.889Z,71.35
2023-03-11T11:11:02.796Z,70.56
2023-03-11T11:13:37.227Z,70.64
2023-03-11T11:16:20.265Z,68.91
2023-03-11T11:19:03.784Z,69.62
2023-03-11T11:21:49.780Z,70.51
2023-03-11T11:24:27.541Z,68.97
2023-03-11T11:27:16.824Z,69.03
2023-03-11T11:29:43.751Z,65.91
2023-03-11T11:32:23.657Z,68.32
2023-03-11T11:34:59.497Z,67.68
2023-03-11T11:37:31.957Z,68.02
2023-03-11T11:40:11.252Z,67.53
2023-03-11T11:42:40.688Z,67.25
2023-03-11T11:46:03.459Z,68.10
2023-03-11T11:48:44.849Z,67.07
2023-03-11T11:51:49.599Z,65.91
2023-03-11T11:54:34.823Z,63.66
2023-03-11T11:57:10.321Z,65.84
2023-03-11T11:59:36.925Z,66.26
2023-03-11T12:02:09.405Z,66.00
2023-03-11T12:05:02.415Z,67.67
2023-03-11T12:07:38.493Z,67.12
2023-03-11T12:10:29.355Z,66.06
2023-03-11T12:13:24.943Z,65.37
2023-03-11T12:16:02.216Z,64.69
2023-03-11T12:18:41.354Z,65.07
2023-03-11T12:21:23.749Z,65.93
2023-03-11T12:24:04.983Z,65.17
2023-03-11T12:26:38.078Z,65.10
2023-03-11T12:29:16.189Z,65.03
2023-03-11T12:31:44.237Z,63.32
2023-03-11T12:34:12.635Z,64.95
2023-03-11T12:36:41.103Z,64.02
2023-03-11T12:39:22.035Z,63.29
2023-03-11T12:41:48.461Z,62.58
2023-03-11T12:44:22.444Z,63.18
2023-03-11T12:46:57.979Z,63.60
2023-03-11T12:49:31.903Z,59.02
2023-03-11T12:52:05.764Z,57.74
2023-03-11T12:54:44.925Z,60.07
2023-03-11T12:57:17.791Z,62.41
2023-03-11T12:59:53.396Z,61.69
2023-03-11T13:02:57.633Z,60.90
2023-03-11T13:05:31.737Z,60.30
2023-03-11T13:08:15.701Z,60.08
2023-03-11T13:10:44.511Z,58.40
2023-03-11T13:13:29.718Z,59.00
2023-03-11T13:15:57.422Z,58.86
2023-03-11T13:18:24.810Z,58.34
2023-03-11T13:21:02.108Z,58.04
2023-03-11T13:23:42.061Z,57.25
2023-03-11T13:26:36.093Z,55.73
2023-03-11T13:29:29.405Z,56.33
2023-03-11T13:32:17.561Z,53.37
2023-03-11T13:35:21.474Z,52.98
2023-03-11T13:38:34.628Z,54.34
2023-03-11T13:41:03.171Z,53.33
2023-03-11T13:43:30.188Z,53.17
2023-03-11T13:46:01.839Z,53.17
2023-03-11T13:48:31.442Z,51.75
2023-03-11T13:51:01.966Z,51.84
2023-03-11T13:53:42.396Z,52.94
2023-03-11T13:56:27.969Z,54.12
2023-03-11T13:58:54.741Z,54.02
2023-03-11T14:01:21.408Z,53.88
2023-03-11T14:03:48.503Z,52.38
2023-03-11T14:06:19.773Z,49.97
2023-03-11T14:08:57.656Z,52.33
2023-03-11T14:11:31.794Z,51.28
2023-03-11T14:13:58.620Z,52.07
2023-03-11T14:16:43.791Z,50.62
2023-03-11T14:19:18.352Z,50.76
2023-03-11T14:21:46.906Z,52.04
2023-03-11T14:24:19.998Z,50.80
2023-03-11T14:26:49.854Z,50.88
2023-03-11T14:29:19.800Z,51.10
2023-03-11T14:31:47.409Z,51.51
2023-03-11T14:34:22.844Z,51.68
2023-03-11T14:36:52.527Z,52.07
2023-03-11T14:39:34.306Z,52.24
2023-03-11T14:42:26.032Z,52.81
2023-03-11T14:45:05.449Z,52.25
2023-03-11T14:47:39.117Z,52.67
2023-03-11T14:50:17.871Z,52.92
2023-03-11T14:52:47.711Z,52.33
2023-03-11T14:55:20.055Z,51.98
2023-03-11T14:58:03.199Z,52.46
2023-03-11T15:00:36.718Z,51.93
2023-03-11T15:03:12.631Z,51.17
2023-03-11T15:05:54.994Z,50.65
2023-03-11T15:08:26.152Z,49.44
2023-03-11T15:11:04.804Z,51.00
2023-03-11T15:13:31.895Z,50.32
2023-03-11T15:16:00.569Z,49.77
2023-03-11T15:18:33.433Z,51.59
2023-03-11T15:21:19.365Z,52.01
2023-03-11T15:24:02.595Z,50.14
2023-03-11T15:26:32.000Z,51.66
2023-03-11T15:29:13.915Z,51.51
2023-03-11T15:31:44.978Z,51.23
2023-03-11T15:34:17.818Z,50.32
2023-03-11T15:36:55.934Z,49.53
2023-03-11T15:39:31.546Z,49.94
2023-03-11T15:42:06.016Z,51.76
2023-03-11T15:44:43.706Z,50.89
2023-03-11T15:47:16.025Z,48.35
2023-03-11T15:49:42.827Z,49.71
2023-03-11T15:52:09.796Z,49.94
2023-03-11T15:54:36.762Z,51.59
2023-03-11T15:57:07.429Z,47.91
2023-03-11T15:59:35.747Z,50.55
2023-03-11T16:02:02.311Z,50.36
2023-03-11T16:04:29.016Z,48.91
2023-03-11T16:07:07.494Z,49.32
2023-03-11T16:09:35.509Z,51.34
2023-03-11T16:12:08.528Z,52.25
2023-03-11T16:14:35.027Z,51.88
2023-03-11T16:17:01.457Z,51.49
2023-03-11T16:19:27.923Z,52.44
2023-03-11T16:21:54.389Z,51.12
2023-03-11T16:24:24.010Z,51.50
2023-03-11T16:26:52.608Z,52.13
2023-03-11T16:29:20.301Z,51.38
2023-03-11T16:31:47.149Z,53.27
2023-03-11T16:34:13.690Z,54.07
2023-03-11T16:36:40.252Z,53.30
2023-03-11T16:39:06.728Z,54.33
2023-03-11T16:41:44.665Z,51.95
2023-03-11T16:44:12.117Z,52.91
2023-03-11T16:46:38.816Z,52.52
2023-03-11T16:49:05.983Z,53.26
2023-03-11T16:51:32.623Z,53.94
2023-03-11T16:53:59.605Z,55.52
2023-03-11T16:56:26.399Z,55.74
2023-03-11T16:58:52.900Z,55.67
2023-03-11T17:01:21.627Z,56.29
2023-03-11T17:03:52.150Z,56.82
2023-03-11T17:06:19.567Z,56.92
2023-03-11T17:08:50.871Z,56.99
2023-03-11T17:11:24.617Z,57.11
2023-03-11T17:13:51.101Z,56.71
2023-03-11T17:16:18.247Z,57.38
2023-03-11T17:18:44.767Z,58.33
2023-03-11T17:21:14.851Z,59.23
2023-03-11T17:23:41.957Z,59.32
2023-03-11T17:26:11.491Z,60.35
2023-03-11T17:28:40.028Z,60.89
2023-03-11T17:31:15.322Z,60.90
2023-03-11T17:33:41.963Z,62.01
2023-03-11T17:36:13.179Z,62.01
2023-03-11T17:38:39.772Z,62.38
2023-03-11T17:41:11.208Z,63.79
2023-03-11T17:43:37.754Z,63.89
2023-03-11T17:46:10.872Z,65.73
2023-03-11T17:48:40.391Z,66.34
2023-03-11T17:51:12.289Z,67.35
2023-03-11T17:53:40.529Z,67.13
2023-03-11T17:56:07.953Z,67.36
2023-03-11T17:58:35.764Z,67.59
2023-03-11T18:01:07.653Z,68.11
2023-03-11T18:03:34.158Z,68.88
2023-03-11T18:06:03.886Z,69.67
2023-03-11T18:08:31.029Z,69.36
2023-03-11T18:11:09.701Z,69.74
2023-03-11T18:13:38.058Z,71.16
2023-03-11T18:16:11.264Z,72.18
2023-03-11T18:18:38.202Z,72.38
2023-03-11T18:21:11.236Z,74.13
2023-03-11T18:23:39.053Z,72.42
2023-03-11T18:26:07.705Z,73.05
2023-03-11T18:28:35.435Z,74.19
2023-03-11T18:31:11.956Z,73.41
2023-03-11T18:33:39.073Z,73.32
2023-03-11T18:36:17.673Z,72.84
2023-03-11T18:38:44.590Z,72.55
2023-03-11T18:41:11.222Z,72.78
2023-03-11T18:43:38.324Z,72.79
2023-03-11T18:46:14.737Z,73.36
2023-03-11T18:48:41.740Z,74.53
2023-03-11T18:51:09.342Z,73.17
2023-03-11T18:53:36.495Z,73.16
2023-03-11T18:56:10.004Z,74.83
2023-03-11T18:58:36.613Z,75.71
2023-03-11T19:01:08.612Z,75.71
2023-03-11T19:03:35.580Z,77.52
2023-03-11T19:06:02.418Z,77.56
2023-03-11T19:08:29.103Z,76.87
2023-03-11T19:10:55.939Z,78.40
2023-03-11T19:13:22.603Z,77.79
2023-03-11T19:15:49.209Z,78.23
2023-03-11T19:18:15.852Z,79.52
2023-03-11T19:20:42.399Z,80.48
2023-03-11T19:23:09.290Z,81.06
2023-03-11T19:25:36.239Z,80.77
2023-03-11T19:28:02.924Z,82.10
2023-03-11T19:30:29.518Z,82.19
2023-03-11T19:32:56.004Z,82.92
2023-03-11T19:35:23.650Z,83.18
2023-03-11T19:37:50.594Z,83.92
2023-03-11T19:40:17.819Z,84.06
2023-03-11T19:42:44.349Z,85.03
2023-03-11T19:45:11.642Z,85.73
2023-03-11T19:47:38.986Z,86.67
2023-03-11T19:50:06.257Z,86.55
2023-03-11T19:52:34.688Z,86.90
2023-03-11T19:55:01.128Z,86.78
2023-03-11T19:57:27.590Z,87.08
2023-03-11T19:59:55.301Z,86.68
2023-03-11T20:02:21.877Z,87.83
2023-03-11T20:04:48.492Z,88.10
2023-03-11T20:07:14.945Z,88.39
2023-03-11T20:09:41.505Z,87.87
2023-03-11T20:12:08.212Z,88.67
2023-03-11T20:14:34.665Z,87.66
2023-03-11T20:17:01.165Z,86.76
2023-03-11T20:19:27.792Z,87.34
2023-03-11T20:21:54.291Z,87.07
2023-03-11T20:24:20.867Z,86.69
2023-03-11T20:26:49.314Z,86.48
2023-03-11T20:29:17.269Z,86.73
2023-03-11T20:31:44.667Z,87.18
2023-03-11T20:34:12.158Z,87.31
2023-03-11T20:36:38.900Z,87.45
2023-03-11T20:39:09.906Z,87.25
2023-03-11T20:41:39.697Z,86.84
2023-03-11T20:44:08.349Z,87.34
2023-03-11T20:46:35.030Z,88.03
2023-03-11T20:49:02.189Z,88.14
2023-03-11T20:51:28.701Z,88.83
2023-03-11T20:53:55.351Z,89.01
2023-03-11T20:56:24.922Z,88.16
2023-03-11T20:58:53.109Z,89.20
2023-03-11T21:01:22.995Z,89.70
2023-03-11T21:03:49.918Z,88.54
2023-03-11T21:06:29.382Z,89.21
2023-03-11T21:08:57.400Z,88.90
2023-03-11T21:11:25.300Z,88.33
2023-03-11T21:13:52.054Z,88.50
2023-03-11T21:16:18.649Z,89.05
2023-03-11T21:18:48.672Z,89.57
2023-03-11T21:21:17.628Z,89.32
2023-03-11T21:23:45.183Z,90.17
2023-03-11T21:26:14.095Z,89.91
2023-03-11T21:28:42.320Z,90.76
2023-03-11T21:31:17.569Z,90.12
2023-03-11T21:33:44.985Z,90.86
2023-03-11T21:36:13.286Z,91.56
2023-03-11T21:38:40.538Z,90.76
2023-03-11T21:41:10.146Z,91.81
2023-03-11T21:43:38.175Z,91.64
2023-03-11T21:46:06.572Z,91.32
2023-03-11T21:48:34.178Z,91.08
2023-03-11T21:51:01.540Z,91.34
2023-03-11T21:53:29.292Z,91.48
2023-03-11T21:55:55.798Z,91.96
2023-03-11T21:58:22.948Z,91.83
2023-03-11T22:00:49.599Z,91.75
2023-03-11T22:03:16.550Z,92.09
2023-03-11T22:05:43.208Z,92.10
2023-03-11T22:08:10.097Z,92.45
2023-03-11T22:10:37.192Z,92.69
2023-03-11T22:13:04.097Z,92.45
2023-03-11T22:15:30.905Z,92.60
2023-03-11T22:17:57.491Z,93.05
2023-03-11T22:20:23.956Z,92.33
2023-03-11T22:22:50.365Z,93.21
2023-03-11T22:25:16.851Z,93.36
2023-03-11T22:27:43.228Z,93.13
2023-03-11T22:30:10.265Z,92.97
2023-03-11T22:32:36.738Z,93.77
2023-03-11T22:35:03.356Z,93.56
2023-03-11T22:37:29.756Z,93.68
2023-03-11T22:39:56.192Z,93.39
2023-03-11T22:42:22.582Z,93.05
2023-03-11T22:44:49.172Z,94.17
2023-03-11T22:47:15.606Z,94.43
2023-03-11T22:49:42.596Z,94.70
2023-03-11T22:52:09.132Z,94.80
2023-03-11T22:54:37.087Z,94.74
2023-03-11T22:57:03.720Z,94.63
2023-03-11T22:59:30.966Z,95.44
2023-03-11T23:01:57.543Z,95.94
2023-03-11T23:04:23.980Z,95.72
2023-03-11T23:06:50.475Z,95.98
2023-03-11T23:09:16.962Z,96.36
2023-03-11T23:11:43.379Z,96.08
2023-03-11T23:14:09.798Z,96.17
2023-03-11T23:16:36.229Z,96.54
2023-03-11T23:19:02.681Z,95.63
2023-03-11T23:21:31.768Z,95.65
2023-03-11T23:24:00.712Z,95.92
2023-03-11T23:26:29.120Z,94.98
2023-03-11T23:28:56.588Z,95.44
2023-03-11T23:31:25.195Z,95.38
2023-03-11T23:33:51.938Z,95.61
2023-03-11T23:36:20.990Z,94.58
2023-03-11T23:38:49.612Z,94.78
2023-03-11T23:41:19.014Z,94.50
2023-03-11T23:43:46.122Z,95.00
2023-03-11T23:46:13.286Z,94.62
2023-03-11T23:48:40.797Z,94.61
2023-03-11T23:51:09.195Z,94.23
2023-03-11T23:53:36.388Z,93.83
2023-03-11T23:56:09.280Z,93.76
2023-03-11T23:58:35.813Z,93.53
